createdAt,value
2018-02-10T00:00:11.902Z,33.60
2018-02-10T00:02:39.393Z,35.67
2018-02-10T00:05:08.060Z,38.83
2018-02-10T00:07:35.553Z,38.60
2018-02-10T00:10:03.417Z,36.37
2018-02-10T00:12:30.897Z,44.90
2018-02-10T00:14:58.352Z,37.77
2018-02-10T00:17:25.853Z,32.23
2018-02-10T00:19:53.320Z,45.27
2018-02-10T00:22:33.171Z,42.07
2018-02-10T00:25:00.645Z,33.90
2018-02-10T00:27:28.906Z,39.40
2018-02-10T00:29:56.404Z,35.53
2018-02-10T00:32:23.858Z,41.33
2018-02-10T00:34:51.347Z,41.50
2018-02-10T00:37:18.821Z,36.00
2018-02-10T00:39:46.317Z,42.50
2018-02-10T00:42:14.546Z,46.90
2018-02-10T00:44:42.004Z,48.20
2018-02-10T00:47:09.480Z,44.37
2018-02-10T00:49:36.950Z,50.80
2018-02-10T00:52:04.422Z,39.60
2018-02-10T00:54:32.662Z,47.60
2018-02-10T00:57:00.153Z,44.20
2018-02-10T00:59:28.452Z,46.93
2018-02-10T01:01:55.933Z,54.90
2018-02-10T01:04:23.413Z,45.30
2018-02-10T01:06:51.141Z,44.97
2018-02-10T01:09:18.799Z,55.07
2018-02-10T01:11:46.280Z,42.73
2018-02-10T01:14:13.761Z,50.47
2018-02-10T01:16:41.341Z,50.80
2018-02-10T01:19:08.805Z,43.20
2018-02-10T01:21:36.273Z,40.17
2018-02-10T01:24:03.765Z,40.80
2018-02-10T01:26:31.306Z,49.30
2018-02-10T01:28:58.757Z,55.67
2018-02-10T01:31:26.229Z,44.03
2018-02-10T01:33:53.725Z,46.87
2018-02-10T01:36:21.206Z,44.90
2018-02-10T01:38:48.671Z,45.20
2018-02-10T01:41:16.174Z,50.53
2018-02-10T01:43:43.633Z,47.53
2018-02-10T01:46:11.109Z,49.50
2018-02-10T01:48:38.602Z,45.73
2018-02-10T01:51:06.058Z,52.67
2018-02-10T01:53:33.549Z,42.50
2018-02-10T01:56:01.031Z,50.87
2018-02-10T01:58:28.514Z,43.77
2018-02-10T02:00:55.996Z,49.27
2018-02-10T02:03:23.477Z,52.57
2018-02-10T02:05:50.969Z,50.43
2018-02-10T02:08:18.429Z,49.00
2018-02-10T02:10:45.910Z,72.73
2018-02-10T02:13:13.402Z,52.50
2018-02-10T02:15:41.642Z,52.27
2018-02-10T02:18:09.122Z,49.67
2018-02-10T02:20:36.617Z,53.93
2018-02-10T02:23:04.071Z,51.83
2018-02-10T02:25:31.535Z,63.80
2018-02-10T02:27:59.016Z,52.27
2018-02-10T02:30:26.471Z,58.70
2018-02-10T02:32:53.966Z,62.90
2018-02-10T02:35:21.423Z,64.80
2018-02-10T02:37:48.929Z,67.93
2018-02-10T02:40:16.410Z,58.97
2018-02-10T02:42:43.868Z,63.80
2018-02-10T02:45:11.350Z,72.50
2018-02-10T02:47:38.977Z,58.90
2018-02-10T02:50:06.518Z,62.20
2018-02-10T02:52:33.987Z,71.90
2018-02-10T02:55:01.454Z,69.03
2018-02-10T02:57:28.933Z,70.20
2018-02-10T02:59:56.430Z,62.93
2018-02-10T03:02:23.893Z,61.30
2018-02-10T03:04:51.365Z,69.27
2018-02-10T03:07:18.858Z,69.53
2018-02-10T03:09:46.349Z,76.10
2018-02-10T03:12:13.846Z,85.03
2018-02-10T03:14:41.310Z,76.60
2018-02-10T03:17:08.776Z,81.37
2018-02-10T03:19:36.274Z,74.43
2018-02-10T03:22:03.753Z,66.87
2018-02-10T03:24:31.238Z,77.33
2018-02-10T03:26:58.697Z,67.97
2018-02-10T03:29:26.196Z,90.37
2018-02-10T03:31:53.666Z,83.60
2018-02-10T03:34:21.133Z,94.70
2018-02-10T03:36:48.661Z,73.63
2018-02-10T03:39:16.105Z,76.07
2018-02-10T03:41:43.566Z,76.53
2018-02-10T03:44:11.061Z,86.27
2018-02-10T03:46:38.522Z,68.97
2018-02-10T03:49:05.986Z,73.00
2018-02-10T03:51:33.465Z,78.40
2018-02-10T03:54:00.953Z,97.97
2018-02-10T03:56:28.417Z,75.10
2018-02-10T03:58:55.903Z,82.60
2018-02-10T04:01:23.399Z,78.57
2018-02-10T04:03:50.871Z,86.00
2018-02-10T04:06:18.326Z,75.67
2018-02-10T04:08:45.818Z,86.77
2018-02-10T04:11:13.281Z,86.33
2018-02-10T04:13:40.742Z,76.80
2018-02-10T04:16:08.269Z,100.40
2018-02-10T04:18:35.797Z,79.87
2018-02-10T04:21:03.255Z,92.80
2018-02-10T04:23:31.497Z,77.63
2018-02-10T04:25:59.079Z,98.83
2018-02-10T04:28:26.560Z,95.33
2018-02-10T04:30:54.787Z,90.43
2018-02-10T04:33:22.286Z,88.60
2018-02-10T04:35:49.737Z,86.83
2018-02-10T04:38:17.965Z,89.90
2018-02-10T04:40:45.453Z,78.00
2018-02-10T04:43:12.915Z,90.67
2018-02-10T04:45:40.387Z,73.60
2018-02-10T04:48:07.981Z,90.87
2018-02-10T04:50:35.449Z,79.17
2018-02-10T04:53:02.938Z,76.50
2018-02-10T04:55:30.421Z,93.77
2018-02-10T04:57:57.882Z,80.20
2018-02-10T05:00:26.109Z,79.07
2018-02-10T05:02:53.606Z,85.20
2018-02-10T05:05:21.085Z,71.13
2018-02-10T05:07:48.576Z,77.63
2018-02-10T05:10:16.099Z,97.17
2018-02-10T05:12:43.566Z,79.87
2018-02-10T05:15:11.812Z,95.77
2018-02-10T05:17:39.314Z,100.93
2018-02-10T05:20:06.782Z,100.80
2018-02-10T05:22:34.238Z,102.30
2018-02-10T05:25:01.713Z,103.03
2018-02-10T05:27:29.196Z,99.47
2018-02-10T05:29:56.681Z,86.10
2018-02-10T05:32:24.925Z,93.87
2018-02-10T05:34:52.381Z,116.80
2018-02-10T05:37:19.865Z,131.50
2018-02-10T05:39:47.321Z,140.57
2018-02-10T05:42:14.804Z,114.10
2018-02-10T05:44:42.320Z,121.00
2018-02-10T05:47:09.781Z,108.07
2018-02-10T05:49:37.281Z,115.63
2018-02-10T05:52:04.728Z,112.03
2018-02-10T05:54:32.968Z,97.37
2018-02-10T05:57:00.457Z,150.93
2018-02-10T05:59:28.760Z,190.63
2018-02-10T06:01:56.253Z,139.50
2018-02-10T06:04:23.710Z,106.60
2018-02-10T06:06:51.210Z,116.93
2018-02-10T06:09:18.675Z,113.57
2018-02-10T06:11:46.143Z,154.73
2018-02-10T06:14:13.629Z,120.47
2018-02-10T06:16:41.117Z,175.60
2018-02-10T06:19:08.585Z,118.97
2018-02-10T06:21:36.063Z,114.57
2018-02-10T06:24:04.330Z,198.20
2018-02-10T06:26:31.834Z,115.90
2018-02-10T06:28:59.421Z,132.93
2018-02-10T06:31:26.888Z,141.73
2018-02-10T06:33:54.357Z,146.87
2018-02-10T06:36:21.846Z,133.80
2018-02-10T06:38:50.150Z,125.00
2018-02-10T06:41:17.616Z,119.87
2018-02-10T06:43:45.102Z,150.77
2018-02-10T06:46:12.618Z,101.10
2018-02-10T06:48:40.069Z,130.10
2018-02-10T06:51:07.535Z,109.83
2018-02-10T06:53:35.030Z,137.60
2018-02-10T06:56:02.505Z,126.93
2018-02-10T06:58:29.989Z,172.43
2018-02-10T07:00:58.263Z,134.07
2018-02-10T07:03:26.671Z,108.50
2018-02-10T07:05:54.129Z,121.60
2018-02-10T07:08:21.694Z,123.93
2018-02-10T07:10:49.164Z,125.67
2018-02-10T07:13:16.622Z,140.37
2018-02-10T07:15:44.116Z,110.97
2018-02-10T07:18:11.592Z,110.83
2018-02-10T07:20:39.854Z,121.97
2018-02-10T07:23:07.359Z,107.50
2018-02-10T07:25:34.881Z,138.47
2018-02-10T07:28:03.108Z,119.73
2018-02-10T07:30:30.574Z,126.77
2018-02-10T07:32:58.068Z,100.37
2018-02-10T07:35:26.296Z,131.43
2018-02-10T07:37:53.786Z,108.97
2018-02-10T07:40:21.249Z,110.63
2018-02-10T07:42:48.738Z,133.23
2018-02-10T07:45:16.990Z,106.40
2018-02-10T07:47:44.513Z,139.47
2018-02-10T07:50:11.981Z,104.63
2018-02-10T07:52:39.437Z,92.93
2018-02-10T07:55:06.954Z,83.73
2018-02-10T07:57:34.420Z,95.27
2018-02-10T08:00:02.017Z,95.23
2018-02-10T08:02:29.866Z,53.10
2018-02-10T08:04:57.372Z,86.13
2018-02-10T08:07:25.057Z,103.80
2018-02-10T08:09:52.756Z,93.20
2018-02-10T08:12:20.494Z,95.00
2018-02-10T08:14:48.236Z,57.73
2018-02-10T08:17:15.892Z,72.30
2018-02-10T08:19:43.508Z,62.77
2018-02-10T08:22:11.342Z,65.73
2018-02-10T08:24:39.248Z,76.40
2018-02-10T08:27:06.944Z,74.90
2018-02-10T08:29:35.449Z,62.63
2018-02-10T08:32:03.126Z,75.70
2018-02-10T08:34:31.583Z,50.17
2018-02-10T08:36:59.086Z,67.17
2018-02-10T08:39:26.791Z,68.83
2018-02-10T08:41:55.250Z,64.00
2018-02-10T08:44:22.743Z,57.70
2018-02-10T08:46:50.212Z,35.13
2018-02-10T08:49:17.697Z,70.50
2018-02-10T08:51:45.166Z,61.87
2018-02-10T08:54:12.658Z,55.60
2018-02-10T08:56:40.113Z,50.33
2018-02-10T08:59:07.578Z,28.93
2018-02-10T09:01:35.108Z,44.57
2018-02-10T09:04:02.565Z,60.40
2018-02-10T09:06:30.037Z,51.87
2018-02-10T09:08:57.587Z,58.37
2018-02-10T09:11:25.098Z,71.57
2018-02-10T09:13:53.477Z,61.63
2018-02-10T09:16:21.155Z,57.60
2018-02-10T09:18:48.686Z,65.57
2018-02-10T09:21:16.162Z,63.80
2018-02-10T09:23:44.549Z,61.17
2018-02-10T09:26:12.030Z,82.72
2018-02-10T09:28:39.596Z,63.93
2018-02-10T09:31:07.137Z,57.87
2018-02-10T09:33:34.621Z,61.10
2018-02-10T09:36:02.096Z,74.90
2018-02-10T09:38:29.610Z,76.23
2018-02-10T09:40:57.072Z,65.30
2018-02-10T09:43:24.561Z,61.63
2018-02-10T09:45:52.017Z,72.33
2018-02-10T09:48:19.531Z,66.00
2018-02-10T09:50:46.982Z,54.23
2018-02-10T09:53:14.442Z,51.77
2018-02-10T09:55:41.921Z,52.60
2018-02-10T09:58:09.466Z,32.40
2018-02-10T10:00:37.713Z,28.43
2018-02-10T10:03:05.217Z,23.83
2018-02-10T10:05:32.694Z,49.73
2018-02-10T10:08:00.148Z,27.00
2018-02-10T10:10:27.649Z,46.63
2018-02-10T10:12:55.126Z,36.30
2018-02-10T10:15:22.580Z,46.57
2018-02-10T10:17:50.075Z,35.13
2018-02-10T10:20:17.696Z,42.57
2018-02-10T10:22:45.149Z,39.73
2018-02-10T10:25:12.649Z,33.67
2018-02-10T10:27:40.105Z,40.20
2018-02-10T10:30:07.634Z,37.73
2018-02-10T10:32:36.230Z,23.67
2018-02-10T10:35:03.785Z,39.33
2018-02-10T10:37:31.275Z,35.90
2018-02-10T10:39:58.734Z,36.47
2018-02-10T10:42:26.242Z,38.80
2018-02-10T10:44:53.701Z,31.10
2018-02-10T10:47:21.271Z,31.97
2018-02-10T10:49:48.829Z,25.80
2018-02-10T10:52:16.332Z,34.80
2018-02-10T10:54:43.821Z,40.03
2018-02-10T10:57:11.442Z,34.83
2018-02-10T10:59:39.016Z,39.20
2018-02-10T11:02:06.520Z,42.83
2018-02-10T11:04:33.995Z,14.53
2018-02-10T11:07:02.353Z,44.50
2018-02-10T11:09:29.848Z,36.67
2018-02-10T11:11:57.471Z,35.80
2018-02-10T11:14:25.775Z,44.40
2018-02-10T11:16:54.146Z,43.10
2018-02-10T11:19:22.000Z,34.47
2018-02-10T11:21:49.572Z,30.90
2018-02-10T11:24:17.094Z,21.93
2018-02-10T11:26:44.650Z,38.27
2018-02-10T11:29:12.265Z,42.80
2018-02-10T11:31:39.926Z,41.03
2018-02-10T11:34:07.537Z,41.97
2018-02-10T11:36:35.229Z,44.47
2018-02-10T11:39:03.228Z,42.33
2018-02-10T11:41:30.996Z,45.97
2018-02-10T11:43:58.518Z,44.47
2018-02-10T11:46:26.131Z,42.70
2018-02-10T11:48:53.701Z,38.07
2018-02-10T11:51:21.178Z,53.77
2018-02-10T11:53:49.465Z,52.23
2018-02-10T11:56:16.878Z,46.63
2018-02-10T11:58:44.365Z,52.73
2018-02-10T12:01:11.830Z,48.40
2018-02-10T12:03:39.325Z,45.90
2018-02-10T12:06:06.782Z,67.53
2018-02-10T12:08:34.285Z,52.07
2018-02-10T12:11:01.784Z,61.63
2018-02-10T12:13:29.340Z,60.83
2018-02-10T12:15:56.805Z,55.13
2018-02-10T12:18:24.349Z,62.53
2018-02-10T12:20:51.953Z,72.00
2018-02-10T12:23:19.481Z,70.07
2018-02-10T12:25:46.973Z,77.97
2018-02-10T12:28:14.440Z,83.83
2018-02-10T12:30:41.936Z,73.13
2018-02-10T12:33:09.393Z,68.50
2018-02-10T12:35:37.039Z,92.50
2018-02-10T12:38:04.641Z,72.40
2018-02-10T12:40:32.129Z,77.63
2018-02-10T12:42:59.610Z,67.70
2018-02-10T12:45:27.282Z,63.73
2018-02-10T12:50:55.105Z,65.93
2018-02-10T12:53:22.609Z,78.50
2018-02-10T12:55:50.097Z,68.53
2018-02-10T12:58:17.568Z,57.90
2018-02-10T13:00:45.027Z,36.90
2018-02-10T13:03:12.505Z,53.43
2018-02-10T13:05:39.973Z,60.40
2018-02-10T13:08:07.462Z,58.00
2018-02-10T13:10:34.978Z,50.37
2018-02-10T13:13:02.433Z,62.47
2018-02-10T13:15:29.965Z,57.90
2018-02-10T13:17:57.430Z,71.47
2018-02-10T13:20:24.913Z,62.53
2018-02-10T13:22:52.409Z,57.87
2018-02-10T13:25:19.870Z,208.53
2018-02-10T13:27:47.333Z,62.00
2018-02-10T13:30:14.832Z,64.80
2018-02-10T13:32:42.304Z,73.13
2018-02-10T13:35:09.753Z,83.10
2018-02-10T13:37:37.226Z,73.77
2018-02-10T13:40:04.702Z,54.50
2018-02-10T13:42:32.191Z,61.37
2018-02-10T13:44:59.680Z,48.80
2018-02-10T13:47:27.150Z,72.17
2018-02-10T13:49:54.616Z,71.50
2018-02-10T13:52:22.095Z,60.67
2018-02-10T13:54:50.318Z,57.37
2018-02-10T13:57:17.801Z,60.83
2018-02-10T13:59:45.256Z,50.60
2018-02-10T14:02:12.732Z,57.03
2018-02-10T14:04:40.190Z,67.80
2018-02-10T14:07:07.681Z,68.20
2018-02-10T14:09:35.157Z,56.77
2018-02-10T14:12:02.626Z,60.73
2018-02-10T14:14:30.114Z,67.50
2018-02-10T14:16:57.594Z,69.27
2018-02-10T14:19:25.057Z,61.87
2018-02-10T14:21:52.557Z,61.13
2018-02-10T14:24:20.037Z,50.67
2018-02-10T14:26:47.501Z,53.60
2018-02-10T14:29:14.991Z,59.30
2018-02-10T14:31:43.214Z,62.87
2018-02-10T14:34:10.707Z,66.03
2018-02-10T14:36:38.172Z,60.57
2018-02-10T14:39:06.461Z,67.47
2018-02-10T14:41:34.713Z,67.97
2018-02-10T14:44:02.178Z,72.67
2018-02-10T14:46:29.662Z,53.33
2018-02-10T14:48:57.910Z,76.20
2018-02-10T14:51:25.366Z,50.43
2018-02-10T14:53:52.861Z,66.13
2018-02-10T14:56:20.330Z,45.17
2018-02-10T14:58:47.812Z,38.13
2018-02-10T15:01:15.302Z,25.63
2018-02-10T15:03:42.761Z,6.37
2018-02-10T15:06:10.237Z,5.70
2018-02-10T15:08:37.822Z,6.20
2018-02-10T15:11:05.288Z,4.77
2018-02-10T15:13:32.781Z,9.10
2018-02-10T15:16:00.257Z,13.17
2018-02-10T15:18:27.742Z,8.87
2018-02-10T15:20:55.189Z,6.20
2018-02-10T15:23:22.702Z,8.13
2018-02-10T15:25:50.950Z,9.60
2018-02-10T15:28:18.405Z,9.10
2018-02-10T15:30:57.662Z,6.53
2018-02-10T15:33:37.015Z,7.47
2018-02-10T15:36:04.507Z,7.93
2018-02-10T15:38:33.835Z,8.80
2018-02-10T15:41:01.627Z,7.40
2018-02-10T15:43:29.181Z,9.37
2018-02-10T15:45:56.642Z,6.50
2018-02-10T15:48:24.291Z,16.03
2018-02-10T15:50:51.762Z,2.70
2018-02-10T15:53:19.295Z,7.03
2018-02-10T15:55:47.541Z,12.30
2018-02-10T15:58:14.997Z,10.37
2018-02-10T16:00:42.482Z,5.90
2018-02-10T16:03:10.723Z,9.17
2018-02-10T16:05:38.192Z,5.57
2018-02-10T16:08:05.685Z,17.70
2018-02-10T16:10:33.153Z,11.13
2018-02-10T16:13:00.612Z,7.17
2018-02-10T16:15:28.395Z,8.73
2018-02-10T16:17:56.240Z,4.47
2018-02-10T16:20:24.112Z,15.40
2018-02-10T16:22:51.633Z,6.60
2018-02-10T16:25:19.146Z,11.13
2018-02-10T16:27:46.706Z,5.10
2018-02-10T16:30:14.407Z,12.50
2018-02-10T16:32:41.881Z,6.10
2018-02-10T16:35:10.096Z,11.20
2018-02-10T16:37:37.565Z,12.47
2018-02-10T16:40:05.168Z,27.03
2018-02-10T16:42:32.864Z,43.53
2018-02-10T16:45:00.390Z,22.23
2018-02-10T16:47:28.106Z,20.20
2018-02-10T16:49:55.808Z,18.80
2018-02-10T16:52:23.479Z,14.40
2018-02-10T16:54:51.827Z,20.67
2018-02-10T16:57:19.315Z,11.00
2018-02-10T16:59:47.600Z,8.20
2018-02-10T17:02:15.928Z,10.03
2018-02-10T17:04:43.394Z,9.60
2018-02-10T17:07:10.988Z,8.70
2018-02-10T17:09:38.512Z,24.60
2018-02-10T17:12:06.156Z,16.67
2018-02-10T17:14:33.691Z,9.93
2018-02-10T17:17:01.479Z,6.13
2018-02-10T17:19:28.979Z,13.87
2018-02-10T17:21:56.723Z,22.57
2018-02-10T17:24:24.491Z,15.93
2018-02-10T17:26:52.122Z,16.13
2018-02-10T17:29:19.820Z,10.63
2018-02-10T17:31:47.425Z,16.80
2018-02-10T17:34:15.741Z,12.60
2018-02-10T17:36:43.256Z,15.50
2018-02-10T17:39:10.745Z,18.80
2018-02-10T17:41:38.347Z,15.93
2018-02-10T17:44:06.848Z,12.87
2018-02-10T17:46:34.620Z,14.03
2018-02-10T17:49:02.151Z,11.30
2018-02-10T17:51:29.644Z,10.30
2018-02-10T17:53:57.901Z,14.97
2018-02-10T17:56:25.412Z,16.03
2018-02-10T17:58:52.897Z,8.03
2018-02-10T18:01:20.368Z,10.93
2018-02-10T18:03:48.634Z,15.20
2018-02-10T18:06:16.145Z,7.00
2018-02-10T18:08:44.612Z,12.60
2018-02-10T18:11:12.235Z,19.07
2018-02-10T18:13:39.853Z,18.27
2018-02-10T18:16:07.620Z,16.63
2018-02-10T18:18:35.173Z,15.37
2018-02-10T18:21:03.566Z,10.37
2018-02-10T18:23:31.021Z,10.70
2018-02-10T18:25:58.514Z,19.70
2018-02-10T18:28:26.055Z,13.80
2018-02-10T18:30:53.604Z,8.13
2018-02-10T18:33:21.093Z,9.43
2018-02-10T18:35:48.561Z,10.67
2018-02-10T18:38:16.050Z,6.70
2018-02-10T18:40:43.763Z,20.83
2018-02-10T18:43:12.107Z,8.10
2018-02-10T18:45:40.394Z,17.03
2018-02-10T18:48:08.048Z,11.43
2018-02-10T18:50:35.710Z,11.33
2018-02-10T18:53:04.213Z,11.30
2018-02-10T18:55:31.942Z,8.90
2018-02-10T18:57:59.586Z,11.90
2018-02-10T19:00:27.936Z,8.47
2018-02-10T19:02:55.454Z,11.33
2018-02-10T19:05:23.837Z,7.03
2018-02-10T19:07:52.113Z,12.07
2018-02-10T19:10:19.822Z,8.80
2018-02-10T19:12:47.571Z,14.47
2018-02-10T19:15:15.095Z,17.93
2018-02-10T19:17:43.341Z,12.30
2018-02-10T19:20:10.860Z,13.97
2018-02-10T19:22:38.329Z,8.80
2018-02-10T19:25:05.789Z,9.83
2018-02-10T19:27:33.261Z,6.67
2018-02-10T19:30:00.737Z,10.43
2018-02-10T19:32:28.229Z,9.90
2018-02-10T19:34:55.745Z,9.65
2018-02-10T19:37:23.206Z,8.90
2018-02-10T19:39:50.681Z,10.20
2018-02-10T19:42:18.172Z,7.07
2018-02-10T19:44:45.653Z,6.00
2018-02-10T19:47:13.176Z,5.27
2018-02-10T19:49:40.648Z,11.00
2018-02-10T19:52:08.163Z,14.10
2018-02-10T19:54:35.624Z,4.13
2018-02-10T19:57:03.093Z,7.80
2018-02-10T19:59:30.566Z,5.83
2018-02-10T20:01:58.786Z,12.47
2018-02-10T20:04:26.266Z,3.83
2018-02-10T20:06:53.732Z,15.73
2018-02-10T20:09:21.204Z,6.97
2018-02-10T20:11:48.710Z,12.13
2018-02-10T20:14:16.206Z,10.10
2018-02-10T20:16:43.748Z,9.63
2018-02-10T20:19:11.276Z,5.60
2018-02-10T20:21:38.765Z,12.33
2018-02-10T20:24:06.245Z,6.40
2018-02-10T20:26:33.721Z,8.27
2018-02-10T20:29:01.232Z,3.70
2018-02-10T20:31:28.709Z,4.63
2018-02-10T20:33:56.168Z,7.10
2018-02-10T20:36:23.640Z,7.13
2018-02-10T20:38:51.115Z,9.80
2018-02-10T20:41:18.648Z,7.97
2018-02-10T20:43:46.097Z,6.20
2018-02-10T20:46:13.565Z,13.93
2018-02-10T20:48:41.074Z,6.00
2018-02-10T20:51:08.525Z,4.97
2018-02-10T20:53:36.005Z,10.43
2018-02-10T20:56:03.481Z,8.97
2018-02-10T20:58:30.965Z,8.10
2018-02-10T21:00:58.420Z,6.30
2018-02-10T21:03:25.906Z,15.73
2018-02-10T21:05:53.364Z,10.50
2018-02-10T21:08:21.617Z,7.30
2018-02-10T21:10:49.065Z,9.67
2018-02-10T21:13:16.560Z,7.07
2018-02-10T21:15:44.012Z,7.50
2018-02-10T21:18:11.481Z,10.80
2018-02-10T21:20:38.945Z,9.10
2018-02-10T21:23:06.397Z,9.23
2018-02-10T21:25:33.874Z,15.37
2018-02-10T21:28:01.354Z,8.70
2018-02-10T21:30:28.809Z,11.40
2018-02-10T21:32:56.285Z,6.20
2018-02-10T21:35:23.773Z,13.03
2018-02-10T21:37:52.001Z,14.37
2018-02-10T21:40:19.557Z,5.87
2018-02-10T21:42:47.021Z,8.37
2018-02-10T21:45:14.501Z,7.03
2018-02-10T21:47:41.982Z,6.40
2018-02-10T21:50:09.430Z,3.97
2018-02-10T21:52:36.901Z,10.77
2018-02-10T21:55:05.120Z,6.07
2018-02-10T21:57:32.605Z,9.90
2018-02-10T22:00:00.065Z,7.10
2018-02-10T22:02:27.541Z,13.77
2018-02-10T22:04:55.054Z,4.57
2018-02-10T22:07:22.487Z,12.17
2018-02-10T22:09:50.042Z,9.23
2018-02-10T22:12:18.290Z,14.13
2018-02-10T22:14:45.746Z,20.60
2018-02-10T22:17:13.230Z,18.40
2018-02-10T22:19:41.473Z,10.97
2018-02-10T22:22:08.932Z,6.73
2018-02-10T22:24:36.412Z,10.93
2018-02-10T22:27:03.865Z,10.43
2018-02-10T22:29:31.337Z,5.60
2018-02-10T22:31:59.689Z,4.43
2018-02-10T22:34:27.144Z,16.87
2018-02-10T22:36:54.618Z,6.23
2018-02-10T22:39:22.090Z,9.37
2018-02-10T22:41:49.549Z,5.63
2018-02-10T22:44:17.026Z,5.60
2018-02-10T22:46:44.485Z,6.67
2018-02-10T22:49:11.985Z,5.13
2018-02-10T22:51:39.445Z,11.00
2018-02-10T22:54:06.905Z,7.27
2018-02-10T22:56:34.383Z,8.43
2018-02-10T22:59:01.843Z,9.93
2018-02-10T23:01:29.337Z,9.73
2018-02-10T23:03:56.781Z,9.93
2018-02-10T23:06:24.264Z,12.70
2018-02-10T23:08:51.754Z,9.30
2018-02-10T23:11:19.237Z,20.23
2018-02-10T23:13:46.713Z,5.20
2018-02-10T23:16:14.953Z,14.70
2018-02-10T23:18:42.440Z,15.53
2018-02-10T23:21:09.894Z,7.73
2018-02-10T23:23:37.349Z,8.97
2018-02-10T23:26:04.833Z,13.10
2018-02-10T23:28:32.306Z,8.10
2018-02-10T23:30:59.796Z,12.43
2018-02-10T23:33:27.249Z,9.63
2018-02-10T23:35:54.720Z,8.20
2018-02-10T23:38:22.202Z,8.60
2018-02-10T23:40:50.453Z,6.07
2018-02-10T23:43:17.917Z,4.93
2018-02-10T23:45:45.401Z,11.53
2018-02-10T23:48:13.693Z,11.97
2018-02-10T23:50:41.161Z,13.73
2018-02-10T23:53:08.629Z,10.30
2018-02-10T23:55:36.105Z,10.20
2018-02-10T23:58:03.557Z,8.07
